Ora Direzione Vento Velocita' Vento Media Vento Raffica Max. Temperatura Wind Chill Pioggia Pressione
03:07:54.0250 °(WSW)33.1 Kts32.0 Kts55.1 Kts13.4 °C10.2 °C0.7 mm1011.0 Hpa
02:45:45.0251 °(WSW)25.7 Kts25.7 Kts55.1 Kts13.4 °C10.6 °C0.7 mm1011.0 Hpa
02:25:42.0254 °(WSW)27.6 Kts30.7 Kts55.1 Kts13.3 °C10.3 °C0.7 mm1011.0 Hpa
02:07:48.0251 °(WSW)39.1 Kts40.7 Kts55.1 Kts13.4 °C9.8 °C0.7 mm1010.0 Hpa
01:47:17.0245 °(WSW)35.6 Kts34.9 Kts55.1 Kts13.9 °C10.6 °C0.7 mm1010.0 Hpa
01:27:20.0239 °(WSW)33.1 Kts35.2 Kts55.1 Kts13.9 °C10.6 °C0.7 mm1009.0 Hpa
01:07:34.0245 °(WSW)24.6 Kts24.7 Kts29.9 Kts14.9 °C12.8 °C0.0 mm1010.0 Hpa
00:47:44.0230 °(SW)25.4 Kts25.2 Kts29.9 Kts14.8 °C12.6 °C0.0 mm1009.0 Hpa
00:25:46.0206 °(SSW)14.4 Kts14.2 Kts24.7 Kts13.7 °C11.9 °C0.0 mm1010.0 Hpa
00:06:13.0204 °(SSW)20.8 Kts19.4 Kts24.7 Kts13.3 °C10.7 °C0.0 mm1010.0 Hpa
23:45:55.0208 °(SSW)39.4 Kts49.9 Kts59.0 Kts13.7 °C9.7 °C4.1 mm1010.0 Hpa
23:26:02.0230 °(SW)24.4 Kts22.8 Kts55.6 Kts13.0 °C9.2 °C4.1 mm1010.0 Hpa
23:06:03.0216 °(SW)30.3 Kts24.9 Kts49.0 Kts13.1 °C10.4 °C4.1 mm1011.0 Hpa
22:46:11.0231 °(SW)21.3 Kts23.9 Kts136.5 Kts13.0 °C10.3 °C4.1 mm1011.0 Hpa
22:26:15.0214 °(SW)113.6 Kts117.8 Kts136.5 Kts12.5 °C6.1 °C3.8 mm1011.0 Hpa
22:06:13.0220 °(SW)72.4 Kts36.0 Kts136.5 Kts15.2 °C11.5 °C1.8 mm1011.0 Hpa
21:46:08.0218 °(SW)28.7 Kts27.8 Kts127.0 Kts15.3 °C13.0 °C1.8 mm1011.0 Hpa
21:25:58.0222 °(SW)34.0 Kts33.1 Kts127.0 Kts15.3 °C12.7 °C1.8 mm1011.0 Hpa
21:06:03.0211 °(SSW)35.0 Kts36.5 Kts127.0 Kts15.3 °C12.5 °C1.8 mm1012.0 Hpa
20:46:12.0210 °(SSW)36.1 Kts36.7 Kts127.0 Kts15.2 °C12.4 °C1.8 mm1012.0 Hpa